Time;durP1;ratioP1;P1;durP2;ratioP2;P2;SDS_P1;SDS_P2;PMS_P1;PMS_P2;Temp;Humidity;BMP_temperature;BMP_pressure;BME280_temperature;BME280_humidity;BME280_pressure;Samples;Min_cycle;Max_cycle;Signal;HPM_P1;HPM_P2
2022/10/25 00:01:09;;;;;;;11.90;4.25;;;;;;;;;;5042241;28;20455;-76
2022/10/25 00:03:36;;;;;;;3.70;3.30;;;;;;;;;;5038370;28;20037;-76
2022/10/25 00:06:04;;;;;;;11.77;4.30;;;;;;;;;;5024240;28;20124;-76
2022/10/25 00:08:31;;;;;;;5.82;4.13;;;;;;;;;;5023507;28;20068;-76
2022/10/25 00:10:58;;;;;;;3.78;2.65;;;;;;;;;;5040252;28;20055;-76
2022/10/25 00:13:26;;;;;;;4.03;2.83;;;;;;;;;;5039274;28;20049;-75
2022/10/25 00:15:54;;;;;;;5.00;3.35;;;;;;;;;;5035041;28;20049;-76
2022/10/25 00:18:21;;;;;;;4.78;3.17;;;;;;;;;;5034381;28;20060;-76
2022/10/25 00:20:48;;;;;;;8.02;3.55;;;;;;;;;;5044700;28;20073;-76
2022/10/25 00:23:16;;;;;;;8.63;3.55;;;;;;;;;;5028131;28;20124;-76
2022/10/25 00:25:43;;;;;;;5.90;3.60;;;;;;;;;;5032407;28;20199;-76
2022/10/25 00:28:11;;;;;;;4.70;3.53;;;;;;;;;;5025391;28;20087;-76
2022/10/25 00:30:38;;;;;;;6.07;3.15;;;;;;;;;;5022987;28;20393;-76
2022/10/25 00:33:05;;;;;;;10.20;3.28;;;;;;;;;;5035508;28;20482;-76
2022/10/25 00:35:35;;;;;;;13.60;4.05;;;;;;;;;;5014922;28;20047;-76
2022/10/25 00:38:02;;;;;;;5.22;3.17;;;;;;;;;;5038181;28;20060;-76
2022/10/25 00:40:30;;;;;;;12.10;3.08;;;;;;;;;;5036755;28;20059;-77
2022/10/25 00:42:57;;;;;;;5.82;2.75;;;;;;;;;;5037782;28;20073;-76
2022/10/25 00:45:26;;;;;;;18.80;2.90;;;;;;;;;;5036508;28;20037;-75
2022/10/25 00:48:04;;;;;;;10.35;3.90;;;;;;;;;;5034671;28;20040;-76
2022/10/25 00:50:31;;;;;;;3.75;2.83;;;;;;;;;;5037419;28;20041;-75
2022/10/25 00:53:02;;;;;;;8.10;3.92;;;;;;;;;;5036456;28;20493;-77
2022/10/25 00:55:30;;;;;;;6.00;3.22;;;;;;;;;;5021158;28;20139;-76
2022/10/25 00:58:08;;;;;;;13.15;4.30;;;;;;;;;;5038314;28;20045;-76
2022/10/25 01:00:35;;;;;;;17.02;3.63;;;;;;;;;;5005431;28;20063;-76
2022/10/25 01:03:03;;;;;;;4.32;3.35;;;;;;;;;;5001081;28;20052;-76
2022/10/25 01:05:32;;;;;;;13.32;3.22;;;;;;;;;;5013190;28;20697;-76
2022/10/25 01:07:59;;;;;;;23.08;2.90;;;;;;;;;;5001040;28;20136;-76
2022/10/25 01:10:26;;;;;;;17.27;3.80;;;;;;;;;;5034473;28;20029;-76
2022/10/25 01:12:54;;;;;;;27.58;3.80;;;;;;;;;;5011792;28;20063;-76
2022/10/25 01:15:24;;;;;;;34.88;3.53;;;;;;;;;;5019176;28;20053;-76
2022/10/25 01:18:03;;;;;;;38.22;3.63;;;;;;;;;;5025586;28;20123;-75
2022/10/25 01:20:33;;;;;;;27.38;3.42;;;;;;;;;;5037281;28;20607;-76
2022/10/25 01:23:23;;;;;;;23.10;3.55;;;;;;;;;;5034567;28;20041;-76
2022/10/25 01:26:09;;;;;;;38.40;4.63;;;;;;;;;;5033688;28;20071;-75
2022/10/25 01:28:39;;;;;;;13.35;2.63;;;;;;;;;;5035681;28;20036;-75
2022/10/25 01:31:07;;;;;;;19.65;3.80;;;;;;;;;;5038794;28;20118;-76
2022/10/25 01:33:48;;;;;;;58.97;4.75;;;;;;;;;;5037838;28;20041;-76
2022/10/25 01:36:22;;;;;;;32.05;3.05;;;;;;;;;;5036194;28;20045;-76
2022/10/25 01:38:52;;;;;;;39.33;2.83;;;;;;;;;;5032336;28;20069;-76
2022/10/25 01:41:25;;;;;;;36.00;3.05;;;;;;;;;;5034998;28;20480;-76
2022/10/25 01:44:03;;;;;;;26.77;2.70;;;;;;;;;;5007127;28;20090;-76
2022/10/25 01:46:30;;;;;;;15.85;2.60;;;;;;;;;;5037787;28;20515;-75
2022/10/25 01:49:03;;;;;;;9.07;2.50;;;;;;;;;;5034642;28;20036;-76
2022/10/25 01:51:34;;;;;;;28.77;2.58;;;;;;;;;;5023407;28;20503;-76
2022/10/25 01:54:01;;;;;;;30.97;3.27;;;;;;;;;;5014496;28;20044;-76
2022/10/25 01:56:46;;;;;;;27.55;2.80;;;;;;;;;;5568163;22;20051;-82
2022/10/25 01:59:43;;;;;;;22.25;2.80;;;;;;;;;;5068517;28;20045;-82
2022/10/25 02:02:15;;;;;;;37.45;3.40;;;;;;;;;;5063677;28;20097;-82
2022/10/25 02:05:05;;;;;;;28.33;2.50;;;;;;;;;;5068424;28;20040;-81
2022/10/25 02:07:33;;;;;;;30.90;2.72;;;;;;;;;;5071967;28;20064;-83
2022/10/25 02:10:08;;;;;;;44.58;3.08;;;;;;;;;;5051653;28;20127;-82
2022/10/25 02:12:47;;;;;;;23.25;2.22;;;;;;;;;;5059493;28;20048;-82
2022/10/25 02:15:22;;;;;;;24.10;2.13;;;;;;;;;;5055746;28;20125;-80
2022/10/25 02:17:53;;;;;;;21.98;1.95;;;;;;;;;;5045469;28;20059;-80
2022/10/25 02:20:24;;;;;;;34.45;2.88;;;;;;;;;;5066900;28;20075;-82
2022/10/25 02:22:53;;;;;;;27.63;2.47;;;;;;;;;;5040207;28;20029;-82
2022/10/25 02:25:21;;;;;;;17.33;2.53;;;;;;;;;;5078254;28;20649;-82
2022/10/25 02:27:50;;;;;;;22.65;2.58;;;;;;;;;;5062340;28;20583;-81
2022/10/25 02:30:17;;;;;;;16.25;2.22;;;;;;;;;;5078351;28;20041;-81
2022/10/25 02:32:45;;;;;;;21.85;2.38;;;;;;;;;;5053084;28;20091;-82
2022/10/25 02:35:16;;;;;;;21.17;2.35;;;;;;;;;;5059936;28;20072;-81
2022/10/25 02:37:43;;;;;;;15.13;2.15;;;;;;;;;;5043372;28;20068;-80
2022/10/25 02:40:11;;;;;;;4.63;1.98;;;;;;;;;;5027317;28;20123;-80
2022/10/25 02:42:39;;;;;;;4.90;1.63;;;;;;;;;;5046392;28;20284;-80
2022/10/25 02:45:06;;;;;;;10.48;2.03;;;;;;;;;;5020163;28;20045;-81
2022/10/25 02:47:34;;;;;;;23.35;2.30;;;;;;;;;;5061009;28;20040;-81
2022/10/25 02:50:01;;;;;;;13.43;2.45;;;;;;;;;;5034128;28;20037;-81
2022/10/25 02:52:30;;;;;;;15.60;2.00;;;;;;;;;;5024990;28;20099;-81
2022/10/25 02:54:57;;;;;;;17.00;2.05;;;;;;;;;;5036835;28;20037;-81
2022/10/25 02:57:24;;;;;;;4.07;1.85;;;;;;;;;;5042639;28;20056;-81
2022/10/25 02:59:52;;;;;;;11.32;2.08;;;;;;;;;;5026398;28;20037;-82
2022/10/25 03:02:19;;;;;;;12.30;2.13;;;;;;;;;;5058527;28;20044;-80
2022/10/25 03:04:46;;;;;;;8.63;2.33;;;;;;;;;;5040172;28;20048;-81
2022/10/25 03:07:14;;;;;;;13.40;2.35;;;;;;;;;;5042336;28;20044;-82
2022/10/25 03:09:41;;;;;;;7.85;2.50;;;;;;;;;;5043985;28;20048;-81
2022/10/25 03:12:09;;;;;;;5.45;2.25;;;;;;;;;;5053371;28;20076;-82
2022/10/25 03:14:36;;;;;;;4.45;1.98;;;;;;;;;;5070231;28;20067;-79
2022/10/25 03:17:05;;;;;;;12.13;2.33;;;;;;;;;;5056929;28;20075;-79
2022/10/25 03:19:32;;;;;;;2.70;2.10;;;;;;;;;;5057071;28;20817;-77
2022/10/25 03:21:59;;;;;;;4.40;1.75;;;;;;;;;;5074070;28;20130;-79
2022/10/25 03:24:27;;;;;;;4.55;1.92;;;;;;;;;;5053378;28;20048;-80
2022/10/25 03:26:54;;;;;;;13.05;2.40;;;;;;;;;;5030502;28;20145;-79
2022/10/25 03:29:21;;;;;;;5.68;2.50;;;;;;;;;;5037992;28;20098;-80
2022/10/25 03:31:49;;;;;;;5.18;2.28;;;;;;;;;;5042506;28;20051;-79
2022/10/25 03:34:16;;;;;;;3.75;1.85;;;;;;;;;;5037884;28;20113;-78
2022/10/25 03:36:44;;;;;;;5.47;2.15;;;;;;;;;;5049037;28;20045;-81
2022/10/25 03:39:11;;;;;;;13.02;2.22;;;;;;;;;;5072808;28;20470;-79
2022/10/25 03:41:38;;;;;;;2.58;2.38;;;;;;;;;;5059143;28;20120;-81
2022/10/25 03:44:06;;;;;;;3.05;2.60;;;;;;;;;;5071882;28;20530;-80
2022/10/25 03:46:33;;;;;;;14.52;3.22;;;;;;;;;;5067747;28;20503;-81
2022/10/25 03:49:00;;;;;;;12.95;2.92;;;;;;;;;;5053689;28;20519;-81
2022/10/25 03:51:28;;;;;;;4.03;2.97;;;;;;;;;;5067104;28;20033;-81
2022/10/25 03:53:55;;;;;;;9.35;3.53;;;;;;;;;;5040731;28;20036;-80
2022/10/25 03:56:22;;;;;;;10.60;3.08;;;;;;;;;;5050406;28;20474;-79
2022/10/25 03:58:50;;;;;;;24.13;4.45;;;;;;;;;;5068838;28;20063;-79
2022/10/25 04:01:17;;;;;;;15.27;3.28;;;;;;;;;;5035099;28;20041;-80
2022/10/25 04:03:45;;;;;;;22.98;3.45;;;;;;;;;;5031882;28;20059;-80
2022/10/25 04:06:12;;;;;;;17.38;3.40;;;;;;;;;;5032699;28;20033;-80
2022/10/25 04:08:39;;;;;;;17.58;3.30;;;;;;;;;;5032043;28;20048;-80
2022/10/25 04:11:07;;;;;;;11.27;3.03;;;;;;;;;;5052539;28;20040;-79
2022/10/25 04:13:35;;;;;;;11.43;3.22;;;;;;;;;;5050363;28;20509;-80
2022/10/25 04:16:06;;;;;;;15.18;3.55;;;;;;;;;;5054075;28;20040;-78
2022/10/25 04:18:33;;;;;;;14.05;3.28;;;;;;;;;;5045205;28;20044;-80
2022/10/25 04:21:01;;;;;;;6.75;3.45;;;;;;;;;;5051518;28;20053;-79
2022/10/25 04:23:30;;;;;;;14.60;3.53;;;;;;;;;;5018194;28;20051;-81
2022/10/25 04:25:58;;;;;;;12.73;3.53;;;;;;;;;;5023253;28;20051;-80
2022/10/25 04:28:26;;;;;;;9.70;3.83;;;;;;;;;;5039124;28;20457;-80
2022/10/25 04:30:53;;;;;;;10.18;4.47;;;;;;;;;;5051120;28;20090;-80
2022/10/25 04:33:20;;;;;;;10.13;3.60;;;;;;;;;;5034414;28;20056;-80
2022/10/25 04:35:58;;;;;;;20.35;3.88;;;;;;;;;;5056805;28;20044;-80
2022/10/25 04:38:25;;;;;;;7.63;3.40;;;;;;;;;;5052851;28;20059;-79
2022/10/25 04:40:56;;;;;;;12.93;3.83;;;;;;;;;;5038309;28;20128;-80
2022/10/25 04:43:24;;;;;;;9.25;3.05;;;;;;;;;;5026945;28;20132;-80
2022/10/25 04:45:54;;;;;;;15.57;3.80;;;;;;;;;;5047992;28;20048;-80
2022/10/25 04:48:22;;;;;;;30.52;3.72;;;;;;;;;;5048281;28;20055;-79
2022/10/25 04:50:49;;;;;;;16.45;3.58;;;;;;;;;;5032203;28;20036;-80
2022/10/25 04:53:16;;;;;;;20.42;2.83;;;;;;;;;;5054058;23;20056;-71
2022/10/25 04:55:44;;;;;;;10.90;3.42;;;;;;;;;;5038467;28;20037;-72
2022/10/25 04:58:11;;;;;;;22.25;3.35;;;;;;;;;;5040487;28;20463;-72
2022/10/25 05:00:39;;;;;;;8.50;2.97;;;;;;;;;;5040336;28;20041;-72
2022/10/25 05:03:06;;;;;;;29.58;3.47;;;;;;;;;;5025405;28;20041;-72
2022/10/25 05:05:39;;;;;;;11.30;3.78;;;;;;;;;;5035425;28;20068;-72
2022/10/25 05:08:06;;;;;;;26.48;4.30;;;;;;;;;;5034186;28;20063;-72
2022/10/25 05:10:34;;;;;;;93.78;5.15;;;;;;;;;;5015783;28;20511;-72
2022/10/25 05:13:01;;;;;;;28.30;3.60;;;;;;;;;;5028389;28;20045;-73
2022/10/25 05:15:29;;;;;;;8.93;4.03;;;;;;;;;;5033833;28;20055;-74
2022/10/25 05:17:57;;;;;;;9.38;3.83;;;;;;;;;;5038430;28;20784;-74
2022/10/25 05:20:24;;;;;;;19.10;3.92;;;;;;;;;;5023556;28;20558;-74
2022/10/25 05:22:51;;;;;;;36.67;3.70;;;;;;;;;;5029732;28;20052;-73
2022/10/25 05:25:18;;;;;;;9.35;3.70;;;;;;;;;;5031318;28;20172;-73
2022/10/25 05:27:46;;;;;;;11.73;3.65;;;;;;;;;;5031700;28;20038;-73
2022/10/25 05:30:13;;;;;;;34.90;3.20;;;;;;;;;;5031487;28;20070;-73
2022/10/25 05:32:42;;;;;;;21.33;3.20;;;;;;;;;;5011605;28;20107;-73
2022/10/25 05:35:09;;;;;;;14.27;2.92;;;;;;;;;;5039349;28;20072;-73
2022/10/25 05:37:37;;;;;;;12.65;3.67;;;;;;;;;;5034251;28;20076;-73
2022/10/25 05:40:04;;;;;;;23.33;3.10;;;;;;;;;;5038691;28;20037;-73
2022/10/25 05:42:32;;;;;;;15.40;3.20;;;;;;;;;;5033304;28;20040;-73
2022/10/25 05:44:59;;;;;;;21.60;2.67;;;;;;;;;;5032463;28;20041;-73
2022/10/25 05:47:26;;;;;;;26.83;2.70;;;;;;;;;;5069962;22;20063;-75
2022/10/25 05:49:54;;;;;;;16.35;2.95;;;;;;;;;;5079210;28;20082;-78
2022/10/25 05:52:21;;;;;;;22.88;2.85;;;;;;;;;;5049396;28;20305;-76
2022/10/25 05:54:48;;;;;;;25.02;3.15;;;;;;;;;;5070308;28;20074;-76
2022/10/25 05:57:16;;;;;;;39.53;3.53;;;;;;;;;;5074229;28;20040;-76
2022/10/25 05:59:43;;;;;;;8.63;3.05;;;;;;;;;;5057350;28;20038;-76
2022/10/25 06:02:10;;;;;;;37.45;3.45;;;;;;;;;;5034170;28;20036;-76
2022/10/25 06:04:38;;;;;;;8.90;2.90;;;;;;;;;;5068826;28;20678;-75
2022/10/25 06:07:07;;;;;;;21.45;3.25;;;;;;;;;;5062634;28;20047;-76
2022/10/25 06:09:35;;;;;;;31.73;3.60;;;;;;;;;;5025120;28;20044;-76
2022/10/25 06:12:02;;;;;;;11.40;2.83;;;;;;;;;;5079961;28;20043;-75
2022/10/25 06:14:35;;;;;;;12.48;3.30;;;;;;;;;;5068325;28;20036;-75
2022/10/25 06:17:03;;;;;;;20.48;3.47;;;;;;;;;;5081134;28;20042;-75
2022/10/25 06:19:30;;;;;;;9.30;3.38;;;;;;;;;;5074301;28;20072;-75
2022/10/25 06:21:57;;;;;;;10.57;3.67;;;;;;;;;;5036785;28;20036;-76
2022/10/25 06:24:25;;;;;;;10.35;3.05;;;;;;;;;;5073924;28;20044;-75
2022/10/25 06:26:52;;;;;;;11.60;2.55;;;;;;;;;;5070442;28;20040;-76
2022/10/25 06:29:19;;;;;;;6.60;2.60;;;;;;;;;;5077252;28;20047;-76
2022/10/25 06:31:48;;;;;;;11.55;3.35;;;;;;;;;;5055746;28;20528;-76
2022/10/25 06:34:15;;;;;;;11.75;3.50;;;;;;;;;;5083187;28;20036;-74
2022/10/25 06:36:43;;;;;;;23.25;4.50;;;;;;;;;;5044604;28;20507;-76
2022/10/25 06:39:10;;;;;;;14.90;3.38;;;;;;;;;;5077247;28;20044;-75
2022/10/25 06:41:37;;;;;;;9.95;3.30;;;;;;;;;;5036779;28;20102;-75
2022/10/25 06:44:05;;;;;;;15.07;3.40;;;;;;;;;;5050915;28;20036;-75
2022/10/25 06:46:35;;;;;;;6.95;3.53;;;;;;;;;;5071219;28;20255;-75
2022/10/25 06:49:23;;;;;;;9.65;3.35;;;;;;;;;;5046274;28;20032;-75
2022/10/25 06:51:50;;;;;;;10.60;3.80;;;;;;;;;;5059328;28;20499;-75
2022/10/25 06:54:17;;;;;;;7.53;4.30;;;;;;;;;;5068856;28;20493;-75
2022/10/25 06:56:44;;;;;;;7.93;3.67;;;;;;;;;;5057452;28;20739;-75
2022/10/25 06:59:12;;;;;;;7.32;4.97;;;;;;;;;;5082248;28;20381;-75
2022/10/25 07:01:39;;;;;;;13.45;4.35;;;;;;;;;;5057714;28;20044;-76
2022/10/25 07:04:07;;;;;;;12.48;4.95;;;;;;;;;;5080251;28;20426;-76
2022/10/25 07:06:34;;;;;;;31.73;5.57;;;;;;;;;;5079270;28;20036;-75
2022/10/25 07:09:03;;;;;;;7.47;4.88;;;;;;;;;;5065439;28;20441;-76
2022/10/25 07:11:32;;;;;;;22.33;6.00;;;;;;;;;;5069164;28;20055;-75
2022/10/25 07:14:00;;;;;;;9.63;6.03;;;;;;;;;;5086182;28;20051;-75
2022/10/25 07:16:28;;;;;;;10.02;6.45;;;;;;;;;;5083207;28;20044;-76
2022/10/25 07:18:59;;;;;;;17.33;7.05;;;;;;;;;;5044831;28;20054;-75
2022/10/25 07:21:54;;;;;;;13.32;6.80;;;;;;;;;;5067765;28;20052;-75
2022/10/25 07:24:22;;;;;;;11.70;6.18;;;;;;;;;;5055267;28;20050;-75
2022/10/25 07:26:49;;;;;;;11.80;6.68;;;;;;;;;;5079876;28;20044;-75
2022/10/25 07:29:16;;;;;;;10.98;6.93;;;;;;;;;;5058216;28;20460;-76
2022/10/25 07:31:44;;;;;;;9.25;7.28;;;;;;;;;;5073350;28;20039;-75
2022/10/25 07:34:13;;;;;;;14.23;8.10;;;;;;;;;;5072232;28;20048;-75
2022/10/25 07:36:41;;;;;;;8.98;7.38;;;;;;;;;;5070521;28;20036;-75
2022/10/25 07:39:08;;;;;;;12.98;7.22;;;;;;;;;;5077765;28;20382;-75
2022/10/25 07:41:35;;;;;;;7.15;6.00;;;;;;;;;;5074651;28;20040;-75
2022/10/25 07:44:03;;;;;;;7.30;6.20;;;;;;;;;;5070022;28;20037;-76
2022/10/25 07:46:30;;;;;;;7.88;6.10;;;;;;;;;;5070755;28;20557;-76
2022/10/25 07:48:57;;;;;;;9.75;6.32;;;;;;;;;;5057023;28;20032;-75
2022/10/25 07:51:25;;;;;;;8.70;5.28;;;;;;;;;;5072378;28;20561;-76
2022/10/25 07:53:52;;;;;;;15.45;6.32;;;;;;;;;;5040592;28;20063;-75
2022/10/25 07:56:20;;;;;;;11.38;6.60;;;;;;;;;;5061773;28;20056;-75
2022/10/25 07:58:51;;;;;;;8.75;5.72;;;;;;;;;;5045942;28;20052;-75
2022/10/25 08:01:22;;;;;;;11.90;6.85;;;;;;;;;;5028687;28;20193;-75
2022/10/25 08:03:51;;;;;;;11.60;6.03;;;;;;;;;;5084323;28;20105;-75
2022/10/25 08:06:19;;;;;;;6.82;5.38;;;;;;;;;;5081767;28;20585;-75
2022/10/25 08:08:47;;;;;;;8.55;5.88;;;;;;;;;;5082368;28;20459;-76
2022/10/25 08:11:14;;;;;;;13.43;5.75;;;;;;;;;;5064030;28;20072;-76
2022/10/25 08:13:42;;;;;;;6.97;5.60;;;;;;;;;;5063826;28;20052;-75
2022/10/25 08:16:09;;;;;;;8.45;5.65;;;;;;;;;;5080164;28;20563;-75
2022/10/25 08:18:36;;;;;;;6.00;4.55;;;;;;;;;;5081616;28;20082;-78
2022/10/25 08:21:04;;;;;;;14.15;6.25;;;;;;;;;;5081534;28;20537;-75
2022/10/25 08:23:32;;;;;;;7.93;5.40;;;;;;;;;;5081588;28;20056;-75
2022/10/25 08:26:00;;;;;;;10.35;6.30;;;;;;;;;;5080525;28;20043;-69
2022/10/25 08:28:29;;;;;;;5.90;5.30;;;;;;;;;;5080875;28;20130;-75
2022/10/25 08:30:57;;;;;;;7.93;5.45;;;;;;;;;;5081107;28;20036;-75
2022/10/25 08:33:24;;;;;;;5.30;4.68;;;;;;;;;;5081210;28;20074;-75
2022/10/25 08:35:52;;;;;;;4.60;4.10;;;;;;;;;;5062595;28;20073;-74
2022/10/25 08:38:19;;;;;;;5.53;4.50;;;;;;;;;;5063585;28;20532;-75
2022/10/25 08:41:00;;;;;;;5.60;5.00;;;;;;;;;;5062987;28;20054;-75
2022/10/25 08:43:46;;;;;;;5.63;5.07;;;;;;;;;;5081457;28;20870;-74
2022/10/25 08:46:23;;;;;;;6.57;5.25;;;;;;;;;;5047074;28;20040;-74
2022/10/25 08:49:02;;;;;;;7.72;4.47;;;;;;;;;;5061901;28;20055;-74
2022/10/25 08:51:32;;;;;;;5.28;4.68;;;;;;;;;;5081602;28;20040;-75
2022/10/25 08:54:02;;;;;;;6.97;4.38;;;;;;;;;;5069092;28;20043;-74
2022/10/25 08:56:29;;;;;;;6.90;4.80;;;;;;;;;;5087767;28;20077;-75
2022/10/25 08:59:00;;;;;;;5.78;3.85;;;;;;;;;;5087137;28;20522;-75
2022/10/25 09:01:27;;;;;;;8.63;5.22;;;;;;;;;;5079163;28;20161;-76
2022/10/25 09:03:55;;;;;;;8.90;5.13;;;;;;;;;;5084043;28;20777;-74
2022/10/25 09:06:32;;;;;;;5.30;4.80;;;;;;;;;;5087339;28;20510;-74
2022/10/25 09:09:06;;;;;;;4.30;3.90;;;;;;;;;;5082281;28;20047;-74
2022/10/25 09:11:39;;;;;;;5.25;4.30;;;;;;;;;;5086600;28;20059;-74
2022/10/25 09:14:17;;;;;;;6.65;4.05;;;;;;;;;;5087143;28;20036;-74
2022/10/25 09:16:59;;;;;;;5.78;4.90;;;;;;;;;;5086095;28;20821;-74
2022/10/25 09:19:39;;;;;;;8.55;5.28;;;;;;;;;;5088146;28;20040;-74
2022/10/25 09:22:14;;;;;;;4.38;3.92;;;;;;;;;;5084793;28;20039;-74
2022/10/25 09:24:50;;;;;;;3.88;3.55;;;;;;;;;;5086686;22;20394;-70
2022/10/25 09:27:40;;;;;;;4.85;4.07;;;;;;;;;;5072808;28;20036;-71
2022/10/25 09:30:08;;;;;;;4.80;3.83;;;;;;;;;;5084845;28;20562;-71
2022/10/25 09:32:36;;;;;;;5.82;4.18;;;;;;;;;;5075184;28;20035;-72
2022/10/25 09:35:04;;;;;;;4.20;3.80;;;;;;;;;;5070589;28;20404;-72
2022/10/25 09:37:40;;;;;;;5.05;3.95;;;;;;;;;;5060567;28;20515;-72
2022/10/25 09:40:31;;;;;;;4.20;3.78;;;;;;;;;;5040021;28;20101;-71
2022/10/25 09:43:02;;;;;;;4.38;4.00;;;;;;;;;;5053943;28;20067;-72
2022/10/25 09:45:32;;;;;;;5.78;4.40;;;;;;;;;;5062289;28;20146;-72
2022/10/25 09:48:21;;;;;;;8.80;4.80;;;;;;;;;;5056212;28;20500;-71
2022/10/25 09:50:53;;;;;;;5.72;5.25;;;;;;;;;;5052723;28;20155;-70
2022/10/25 09:53:20;;;;;;;7.38;5.00;;;;;;;;;;5061035;28;20071;-71
2022/10/25 09:55:50;;;;;;;7.40;5.05;;;;;;;;;;5063183;28;20051;-72
2022/10/25 09:58:19;;;;;;;5.78;5.05;;;;;;;;;;5059435;28;20048;-70
2022/10/25 10:00:47;;;;;;;4.43;4.03;;;;;;;;;;5056596;28;20047;-72
2022/10/25 10:03:14;;;;;;;5.57;4.80;;;;;;;;;;5054809;28;20041;-71
2022/10/25 10:05:45;;;;;;;7.40;4.65;;;;;;;;;;5049095;28;20033;-72
2022/10/25 10:08:13;;;;;;;7.13;4.63;;;;;;;;;;5041930;28;20044;-71
2022/10/25 10:10:40;;;;;;;7.18;4.80;;;;;;;;;;5007807;28;20110;-71
2022/10/25 10:13:13;;;;;;;10.48;5.22;;;;;;;;;;5055211;28;20044;-72
2022/10/25 10:15:48;;;;;;;6.80;4.75;;;;;;;;;;5042310;28;20045;-71
2022/10/25 10:18:24;;;;;;;4.53;4.13;;;;;;;;;;5057342;28;20048;-71
2022/10/25 10:20:57;;;;;;;4.90;4.40;;;;;;;;;;5063021;28;20041;-71
2022/10/25 10:23:26;;;;;;;5.25;4.75;;;;;;;;;;5060375;28;20094;-70
2022/10/25 10:25:54;;;;;;;6.05;5.05;;;;;;;;;;5038935;28;20090;-70
2022/10/25 10:28:21;;;;;;;12.00;7.25;;;;;;;;;;5039929;28;20362;-68
2022/10/25 10:30:56;;;;;;;13.05;9.05;;;;;;;;;;5044532;28;20033;-69
2022/10/25 10:33:25;;;;;;;8.13;6.72;;;;;;;;;;5043473;28;20053;-70
2022/10/25 10:35:54;;;;;;;6.72;5.13;;;;;;;;;;5051701;28;20041;-71
2022/10/25 10:38:22;;;;;;;5.53;5.00;;;;;;;;;;5034743;28;20107;-70
2022/10/25 10:40:51;;;;;;;4.43;4.13;;;;;;;;;;5018627;28;20041;-70
2022/10/25 10:43:36;;;;;;;7.15;4.90;;;;;;;;;;5060612;28;20040;-70
2022/10/25 10:46:18;;;;;;;5.65;4.95;;;;;;;;;;5026012;28;20044;-69
2022/10/25 10:48:52;;;;;;;7.68;4.78;;;;;;;;;;5043007;28;20056;-71
2022/10/25 10:51:20;;;;;;;5.45;4.30;;;;;;;;;;5041353;28;20048;-71
2022/10/25 10:54:20;;;;;;;4.30;3.90;;;;;;;;;;5041809;28;20048;-71
2022/10/25 10:57:00;;;;;;;4.50;3.85;;;;;;;;;;5055562;28;20049;-71
2022/10/25 10:59:31;;;;;;;4.18;3.03;;;;;;;;;;5040244;28;21621;-71
2022/10/25 11:02:10;;;;;;;2.90;2.70;;;;;;;;;;5046941;28;20044;-70
2022/10/25 11:04:50;;;;;;;2.63;2.33;;;;;;;;;;5060240;28;20041;-71
2022/10/25 11:07:33;;;;;;;3.75;2.70;;;;;;;;;;5052921;28;20048;-70
2022/10/25 11:10:00;;;;;;;;;;;;;;;;;;5057721;28;20318;-70
2022/10/25 11:12:27;;;;;;;4.28;2.40;;;;;;;;;;5060548;28;20152;-71
2022/10/25 11:14:54;;;;;;;2.33;2.13;;;;;;;;;;5050875;28;20041;-71
2022/10/25 11:17:24;;;;;;;2.72;2.47;;;;;;;;;;5048245;28;20124;-70
2022/10/25 11:19:52;;;;;;;2.65;2.30;;;;;;;;;;5056939;28;20040;-71
2022/10/25 11:22:35;;;;;;;4.00;2.22;;;;;;;;;;5041460;28;20048;-71
2022/10/25 11:25:05;;;;;;;5.82;3.72;;;;;;;;;;5058137;28;20048;-71
2022/10/25 11:27:48;;;;;;;5.85;3.75;;;;;;;;;;5045367;28;20045;-72
2022/10/25 11:30:17;;;;;;;2.70;2.50;;;;;;;;;;5053766;28;20412;-71
2022/10/25 11:33:03;;;;;;;3.80;3.10;;;;;;;;;;5065943;28;20496;-72
2022/10/25 11:35:37;;;;;;;4.82;3.53;;;;;;;;;;5035923;28;20420;-72
2022/10/25 11:38:04;;;;;;;4.10;2.95;;;;;;;;;;5048662;28;20116;-72
2022/10/25 11:40:44;;;;;;;5.85;2.50;;;;;;;;;;5038725;28;20056;-71
2022/10/25 11:43:13;;;;;;;4.75;3.08;;;;;;;;;;5052889;28;20048;-72
2022/10/25 11:45:48;;;;;;;3.00;2.70;;;;;;;;;;5058664;28;20504;-73
2022/10/25 11:48:26;;;;;;;3.55;2.60;;;;;;;;;;5032956;28;20048;-72
2022/10/25 11:50:58;;;;;;;4.50;2.08;;;;;;;;;;5046855;28;20050;-72
2022/10/25 11:53:39;;;;;;;3.90;2.17;;;;;;;;;;5056189;28;20056;-73
2022/10/25 11:56:13;;;;;;;2.45;1.98;;;;;;;;;;5057325;28;20047;-72
2022/10/25 11:58:51;;;;;;;1.90;1.80;;;;;;;;;;5055285;28;20098;-72
2022/10/25 12:01:18;;;;;;;3.17;2.05;;;;;;;;;;5046048;28;20118;-68
2022/10/25 12:04:01;;;;;;;4.90;3.03;;;;;;;;;;5050540;28;20103;-69
2022/10/25 12:06:39;;;;;;;2.20;2.00;;;;;;;;;;5053958;28;20124;-72
2022/10/25 12:09:15;;;;;;;3.42;1.77;;;;;;;;;;5063425;28;20048;-71
2022/10/25 12:11:47;;;;;;;4.05;1.70;;;;;;;;;;5052710;28;20068;-71
2022/10/25 12:14:17;;;;;;;5.85;1.90;;;;;;;;;;5060792;28;20041;-72
2022/10/25 12:16:45;;;;;;;2.25;2.05;;;;;;;;;;5053539;28;20173;-72
2022/10/25 12:19:15;;;;;;;2.92;2.08;;;;;;;;;;5040628;28;20507;-73
2022/10/25 12:21:45;;;;;;;1.63;1.52;;;;;;;;;;5056163;28;20094;-73
2022/10/25 12:24:17;;;;;;;2.90;1.50;;;;;;;;;;5036321;28;20523;-73
2022/10/25 12:26:45;;;;;;;1.88;1.70;;;;;;;;;;5016709;28;20384;-74
2022/10/25 12:29:16;;;;;;;1.83;1.67;;;;;;;;;;5049635;28;20037;-72
2022/10/25 12:31:44;;;;;;;;;;;;;;;;;;5053879;28;20584;-71
2022/10/25 12:34:13;;;;;;;2.88;1.70;;;;;;;;;;5039130;28;19933;-74
2022/10/25 12:36:49;;;;;;;2.97;2.67;;;;;;;;;;5017827;28;20045;-72
2022/10/25 12:39:23;;;;;;;3.30;2.38;;;;;;;;;;5057799;28;20127;-72
2022/10/25 12:41:55;;;;;;;3.22;1.88;;;;;;;;;;5057454;28;20124;-74
2022/10/25 12:44:29;;;;;;;3.15;2.20;;;;;;;;;;5050652;28;20052;-70
2022/10/25 12:46:57;;;;;;;2.75;1.90;;;;;;;;;;5018039;28;20143;-73
2022/10/25 12:49:43;;;;;;;2.63;1.60;;;;;;;;;;5037677;28;20041;-72
2022/10/25 12:52:25;;;;;;;3.95;1.92;;;;;;;;;;5056421;28;20142;-73
2022/10/25 12:54:52;;;;;;;;;;;;;;;;;;5041551;28;20044;-72
2022/10/25 12:57:26;;;;;;;4.22;1.80;;;;;;;;;;5063117;28;19944;-71
2022/10/25 13:00:04;;;;;;;3.10;1.45;;;;;;;;;;5050675;28;20546;-72
2022/10/25 13:02:50;;;;;;;3.95;2.03;;;;;;;;;;5050794;28;20041;-73
2022/10/25 13:05:27;;;;;;;5.85;1.67;;;;;;;;;;5062408;28;20046;-72
2022/10/25 13:07:56;;;;;;;1.48;1.38;;;;;;;;;;5048132;28;20040;-73
2022/10/25 13:10:24;;;;;;;4.30;2.08;;;;;;;;;;5030201;28;20047;-73
2022/10/25 13:13:12;;;;;;;2.03;1.52;;;;;;;;;;5070746;28;20067;-73
2022/10/25 13:15:40;;;;;;;1.85;1.55;;;;;;;;;;5018787;28;20463;-73
2022/10/25 13:18:24;;;;;;;8.23;1.70;;;;;;;;;;5050806;28;20100;-73
2022/10/25 13:20:52;;;;;;;5.88;1.30;;;;;;;;;;5055526;28;20135;-73
2022/10/25 13:23:38;;;;;;;1.70;1.40;;;;;;;;;;5056533;28;20131;-73
2022/10/25 13:26:07;;;;;;;1.85;1.33;;;;;;;;;;5049233;28;20032;-74
2022/10/25 13:28:43;;;;;;;1.20;0.98;;;;;;;;;;5035056;28;20559;-74
2022/10/25 13:31:29;;;;;;;1.50;1.00;;;;;;;;;;5052394;28;20051;-75
2022/10/25 13:34:12;;;;;;;8.40;1.75;;;;;;;;;;5040028;28;20040;-71
2022/10/25 13:36:45;;;;;;;3.90;2.30;;;;;;;;;;5017895;28;20056;-72
2022/10/25 13:39:21;;;;;;;26.05;16.77;;;;;;;;;;5024980;28;20511;-72
2022/10/25 13:41:48;;;;;;;10.90;9.80;;;;;;;;;;5036366;28;20491;-73
2022/10/25 13:44:20;;;;;;;14.00;11.15;;;;;;;;;;5051908;28;20063;-72
2022/10/25 13:46:48;;;;;;;8.98;7.53;;;;;;;;;;5060412;28;20112;-72
2022/10/25 13:49:38;;;;;;;10.52;4.47;;;;;;;;;;5053422;28;20507;-74
2022/10/25 13:52:07;;;;;;;4.93;4.43;;;;;;;;;;5026867;28;20088;-74
2022/10/25 13:54:40;;;;;;;15.88;8.55;;;;;;;;;;5063385;28;20043;-73
2022/10/25 13:57:28;;;;;;;9.43;6.07;;;;;;;;;;5024679;28;20143;-73
2022/10/25 13:59:59;;;;;;;14.55;8.88;;;;;;;;;;5049005;28;20045;-72
2022/10/25 14:02:27;;;;;;;5.40;4.90;;;;;;;;;;5029039;28;20071;-72
2022/10/25 14:04:55;;;;;;;6.15;3.72;;;;;;;;;;5032896;28;20048;-74
2022/10/25 14:07:42;;;;;;;3.30;2.35;;;;;;;;;;5047789;28;20055;-73
2022/10/25 14:10:20;;;;;;;3.47;1.55;;;;;;;;;;5024807;28;20040;-72
2022/10/25 14:12:49;;;;;;;6.05;1.58;;;;;;;;;;5033743;28;20040;-72
2022/10/25 14:15:29;;;;;;;4.93;1.27;;;;;;;;;;5002203;28;20045;-73
2022/10/25 14:17:58;;;;;;;4.00;1.73;;;;;;;;;;5045823;28;20040;-73
2022/10/25 14:20:29;;;;;;;2.72;2.28;;;;;;;;;;5036111;28;20422;-72
2022/10/25 14:22:59;;;;;;;;;;;;;;;;;;5018558;28;20048;-73
2022/10/25 14:25:33;;;;;;;5.10;3.22;;;;;;;;;;5035670;28;20043;-73
2022/10/25 14:28:24;;;;;;;5.68;2.22;;;;;;;;;;5052129;28;20044;-74
2022/10/25 14:30:53;;;;;;;9.70;4.15;;;;;;;;;;5027389;28;20045;-74
2022/10/25 14:33:28;;;;;;;3.75;3.30;;;;;;;;;;5038920;28;20041;-73
2022/10/25 14:35:57;;;;;;;5.03;2.50;;;;;;;;;;5014032;28;20045;-72
2022/10/25 14:38:26;;;;;;;3.17;2.90;;;;;;;;;;5041089;28;20055;-76
2022/10/25 14:40:55;;;;;;;5.32;2.75;;;;;;;;;;5010522;28;20053;-74
2022/10/25 14:43:33;;;;;;;3.28;2.75;;;;;;;;;;5030627;28;20439;-72
2022/10/25 14:46:13;;;;;;;3.13;2.67;;;;;;;;;;5043026;28;20048;-72
2022/10/25 14:48:41;;;;;;;6.65;3.92;;;;;;;;;;5019395;28;20089;-73
2022/10/25 14:51:18;;;;;;;7.63;6.38;;;;;;;;;;5047021;28;20509;-73
2022/10/25 14:53:48;;;;;;;12.30;6.07;;;;;;;;;;5047667;28;20571;-73
2022/10/25 14:56:24;;;;;;;8.18;6.38;;;;;;;;;;5045488;28;20052;-72
2022/10/25 14:58:52;;;;;;;9.63;7.10;;;;;;;;;;5038621;28;20049;-72
2022/10/25 15:01:21;;;;;;;6.80;6.15;;;;;;;;;;5039308;28;20048;-72